sensor_id;sensor_type;location;lat;lon;timestamp;pressure;altitude;pressure_sealevel;temperature;humidity
56052;BME280;41919;42.648;23.384;2023-02-28T00:00:20;94955.22;;;5.57;100.00
56052;BME280;41919;42.648;23.384;2023-02-28T00:02:46;95039.81;;;5.90;100.00
56052;BME280;41919;42.648;23.384;2023-02-28T00:05:13;94969.47;;;5.44;100.00
56052;BME280;41919;42.648;23.384;2023-02-28T00:07:39;95009.00;;;5.71;100.00
56052;BME280;41919;42.648;23.384;2023-02-28T00:10:06;95029.63;;;5.97;100.00
56052;BME280;41919;42.648;23.384;2023-02-28T00:12:33;95042.44;;;6.07;100.00
56052;BME280;41919;42.648;23.384;2023-02-28T00:14:59;95043.44;;;6.06;100.00
56052;BME280;41919;42.648;23.384;2023-02-28T00:17:25;94976.94;;;5.64;100.00
56052;BME280;41919;42.648;23.384;2023-02-28T00:19:51;95029.13;;;5.94;100.00
56052;BME280;41919;42.648;23.384;2023-02-28T00:22:18;95041.63;;;6.06;100.00
56052;BME280;41919;42.648;23.384;2023-02-28T00:24:45;95043.75;;;6.03;100.00
56052;BME280;41919;42.648;23.384;2023-02-28T00:27:10;94967.69;;;5.61;100.00
56052;BME280;41919;42.648;23.384;2023-02-28T00:29:36;95041.16;;;6.03;100.00
56052;BME280;41919;42.648;23.384;2023-02-28T00:32:02;94963.63;;;5.75;100.00
56052;BME280;41919;42.648;23.384;2023-02-28T00:34:28;95050.97;;;6.48;100.00
56052;BME280;41919;42.648;23.384;2023-02-28T00:36:54;95053.69;;;6.63;100.00
56052;BME280;41919;42.648;23.384;2023-02-28T00:39:19;94987.38;;;6.44;100.00
56052;BME280;41919;42.648;23.384;2023-02-28T00:41:45;94972.91;;;6.50;100.00
56052;BME280;41919;42.648;23.384;2023-02-28T00:44:10;95019.28;;;7.01;100.00
56052;BME280;41919;42.648;23.384;2023-02-28T00:46:36;95036.09;;;7.21;100.00
56052;BME280;41919;42.648;23.384;2023-02-28T00:49:01;94961.75;;;6.81;100.00
56052;BME280;41919;42.648;23.384;2023-02-28T00:51:26;95037.19;;;7.27;100.00
56052;BME280;41919;42.648;23.384;2023-02-28T00:53:52;95011.84;;;7.29;100.00
56052;BME280;41919;42.648;23.384;2023-02-28T00:56:17;95011.00;;;7.29;100.00
56052;BME280;41919;42.648;23.384;2023-02-28T00:58:43;94968.13;;;7.01;100.00
56052;BME280;41919;42.648;23.384;2023-02-28T01:01:08;95046.94;;;7.56;100.00
56052;BME280;41919;42.648;23.384;2023-02-28T01:03:34;95046.88;;;7.64;100.00
56052;BME280;41919;42.648;23.384;2023-02-28T01:06:00;95041.81;;;7.63;100.00
56052;BME280;41919;42.648;23.384;2023-02-28T01:08:25;95044.56;;;7.70;100.00
56052;BME280;41919;42.648;23.384;2023-02-28T01:10:51;94989.72;;;7.33;100.00
56052;BME280;41919;42.648;23.384;2023-02-28T01:13:18;95030.16;;;7.59;100.00
56052;BME280;41919;42.648;23.384;2023-02-28T01:15:52;95016.13;;;7.68;100.00
56052;BME280;41919;42.648;23.384;2023-02-28T01:18:20;95017.69;;;7.77;100.00
56052;BME280;41919;42.648;23.384;2023-02-28T01:20:47;94961.56;;;7.37;100.00
56052;BME280;41919;42.648;23.384;2023-02-28T01:23:13;95016.44;;;7.65;100.00
56052;BME280;41919;42.648;23.384;2023-02-28T01:25:38;95020.78;;;7.73;100.00
56052;BME280;41919;42.648;23.384;2023-02-28T01:28:05;94950.78;;;7.25;100.00
56052;BME280;41919;42.648;23.384;2023-02-28T01:30:31;95011.94;;;7.59;100.00
56052;BME280;41919;42.648;23.384;2023-02-28T01:32:57;95024.25;;;7.65;100.00
56052;BME280;41919;42.648;23.384;2023-02-28T01:35:23;95023.13;;;7.68;100.00
56052;BME280;41919;42.648;23.384;2023-02-28T01:37:48;94952.38;;;7.26;100.00
56052;BME280;41919;42.648;23.384;2023-02-28T01:40:13;94968.44;;;7.30;100.00
56052;BME280;41919;42.648;23.384;2023-02-28T01:42:39;94969.25;;;7.30;100.00
56052;BME280;41919;42.648;23.384;2023-02-28T01:45:22;95042.66;;;7.87;100.00
56052;BME280;41919;42.648;23.384;2023-02-28T01:47:52;94955.59;;;7.51;100.00
56052;BME280;41919;42.648;23.384;2023-02-28T01:50:22;95024.28;;;8.03;100.00
56052;BME280;41919;42.648;23.384;2023-02-28T01:52:48;94983.47;;;7.80;100.00
56052;BME280;41919;42.648;23.384;2023-02-28T01:55:16;95027.59;;;7.97;100.00
56052;BME280;41919;42.648;23.384;2023-02-28T01:57:49;94972.22;;;7.65;100.00
56052;BME280;41919;42.648;23.384;2023-02-28T02:00:18;95029.56;;;7.95;100.00
56052;BME280;41919;42.648;23.384;2023-02-28T02:02:47;95029.75;;;7.93;100.00
56052;BME280;41919;42.648;23.384;2023-02-28T02:05:25;94966.47;;;7.32;100.00
56052;BME280;41919;42.648;23.384;2023-02-28T02:07:54;95046.06;;;7.64;100.00
56052;BME280;41919;42.648;23.384;2023-02-28T02:10:27;95015.41;;;7.28;100.00
56052;BME280;41919;42.648;23.384;2023-02-28T02:15:41;95033.28;;;7.31;100.00
56052;BME280;41919;42.648;23.384;2023-02-28T02:18:29;95043.53;;;7.24;100.00
56052;BME280;41919;42.648;23.384;2023-02-28T02:34:52;95036.16;;;6.57;100.00
56052;BME280;41919;42.648;23.384;2023-02-28T02:37:25;95038.09;;;6.72;100.00
56052;BME280;41919;42.648;23.384;2023-02-28T02:40:18;94971.69;;;6.30;100.00
56052;BME280;41919;42.648;23.384;2023-02-28T02:42:55;94971.03;;;6.27;100.00
56052;BME280;41919;42.648;23.384;2023-02-28T02:45:35;94963.38;;;6.34;100.00
56052;BME280;41919;42.648;23.384;2023-02-28T02:48:06;94999.50;;;6.60;100.00
56052;BME280;41919;42.648;23.384;2023-02-28T02:50:37;95046.72;;;7.03;100.00
56052;BME280;41919;42.648;23.384;2023-02-28T02:53:05;94980.56;;;6.83;100.00
56052;BME280;41919;42.648;23.384;2023-02-28T02:55:34;95037.69;;;7.22;100.00
56052;BME280;41919;42.648;23.384;2023-02-28T02:58:04;95050.25;;;7.42;100.00
56052;BME280;41919;42.648;23.384;2023-02-28T03:00:38;95065.41;;;7.38;100.00
56052;BME280;41919;42.648;23.384;2023-02-28T03:03:05;95015.94;;;7.23;100.00
56052;BME280;41919;42.648;23.384;2023-02-28T03:05:38;95051.03;;;7.51;100.00
56052;BME280;41919;42.648;23.384;2023-02-28T03:08:05;95066.56;;;7.59;100.00
56052;BME280;41919;42.648;23.384;2023-02-28T03:10:32;95078.22;;;7.71;100.00
56052;BME280;41919;42.648;23.384;2023-02-28T03:18:54;95082.31;;;7.65;100.00
56052;BME280;41919;42.648;23.384;2023-02-28T03:21:51;95091.56;;;7.68;100.00
56052;BME280;41919;42.648;23.384;2023-02-28T03:26:50;95022.00;;;7.07;100.00
56052;BME280;41919;42.648;23.384;2023-02-28T03:29:20;95092.00;;;7.49;100.00
56052;BME280;41919;42.648;23.384;2023-02-28T03:31:53;95018.63;;;6.59;100.00
56052;BME280;41919;42.648;23.384;2023-02-28T03:34:29;95102.06;;;6.48;100.00
56052;BME280;41919;42.648;23.384;2023-02-28T03:37:00;95106.00;;;6.19;100.00
56052;BME280;41919;42.648;23.384;2023-02-28T03:39:39;95099.69;;;6.22;100.00
56052;BME280;41919;42.648;23.384;2023-02-28T03:42:28;95093.03;;;6.03;100.00
56052;BME280;41919;42.648;23.384;2023-02-28T03:45:00;95097.72;;;6.07;100.00
56052;BME280;41919;42.648;23.384;2023-02-28T03:47:39;95115.72;;;6.17;100.00
56052;BME280;41919;42.648;23.384;2023-02-28T03:50:34;95110.56;;;6.01;100.00
56052;BME280;41919;42.648;23.384;2023-02-28T03:53:16;95102.59;;;6.19;100.00
56052;BME280;41919;42.648;23.384;2023-02-28T03:55:51;95090.78;;;6.08;100.00
56052;BME280;41919;42.648;23.384;2023-02-28T04:01:50;95116.69;;;5.83;100.00
56052;BME280;41919;42.648;23.384;2023-02-28T04:04:10;95041.59;;;5.65;100.00
56052;BME280;41919;42.648;23.384;2023-02-28T04:06:37;95124.81;;;5.97;100.00
56052;BME280;41919;42.648;23.384;2023-02-28T04:09:04;95012.56;;;5.54;100.00
56052;BME280;41919;42.648;23.384;2023-02-28T04:14:02;95040.00;;;5.97;100.00
56052;BME280;41919;42.648;23.384;2023-02-28T04:16:29;95086.88;;;6.37;100.00
56052;BME280;41919;42.648;23.384;2023-02-28T04:18:55;95037.56;;;6.12;100.00
56052;BME280;41919;42.648;23.384;2023-02-28T04:21:28;95038.22;;;6.14;100.00
56052;BME280;41919;42.648;23.384;2023-02-28T04:23:54;95108.09;;;6.57;100.00
56052;BME280;41919;42.648;23.384;2023-02-28T04:26:19;95104.66;;;6.64;100.00
56052;BME280;41919;42.648;23.384;2023-02-28T04:28:45;95058.59;;;6.42;100.00
56052;BME280;41919;42.648;23.384;2023-02-28T04:31:10;95105.94;;;6.68;100.00
56052;BME280;41919;42.648;23.384;2023-02-28T04:33:36;95035.13;;;6.19;100.00
56052;BME280;41919;42.648;23.384;2023-02-28T04:36:04;95101.56;;;6.61;100.00
56052;BME280;41919;42.648;23.384;2023-02-28T04:38:37;95036.25;;;6.24;100.00
56052;BME280;41919;42.648;23.384;2023-02-28T04:41:03;95042.72;;;6.28;100.00
56052;BME280;41919;42.648;23.384;2023-02-28T04:43:29;95051.34;;;6.29;100.00
56052;BME280;41919;42.648;23.384;2023-02-28T04:45:57;95124.59;;;6.72;100.00
56052;BME280;41919;42.648;23.384;2023-02-28T04:48:28;95058.63;;;6.34;100.00
56052;BME280;41919;42.648;23.384;2023-02-28T04:50:54;95131.25;;;6.75;100.00
56052;BME280;41919;42.648;23.384;2023-02-28T04:53:20;95050.53;;;6.20;100.00
56052;BME280;41919;42.648;23.384;2023-02-28T04:55:46;95124.63;;;6.64;100.00
56052;BME280;41919;42.648;23.384;2023-02-28T04:58:12;95129.66;;;6.74;100.00
56052;BME280;41919;42.648;23.384;2023-02-28T05:00:38;95113.78;;;6.44;100.00
56052;BME280;41919;42.648;23.384;2023-02-28T05:03:03;95130.34;;;6.43;100.00
56052;BME280;41919;42.648;23.384;2023-02-28T05:05:29;95057.69;;;6.10;100.00
56052;BME280;41919;42.648;23.384;2023-02-28T05:07:54;95129.53;;;6.34;100.00
56052;BME280;41919;42.648;23.384;2023-02-28T05:10:23;95046.94;;;5.56;100.00
56052;BME280;41919;42.648;23.384;2023-02-28T05:12:49;95060.38;;;5.67;100.00
56052;BME280;41919;42.648;23.384;2023-02-28T05:15:15;95136.00;;;5.97;100.00
56052;BME280;41919;42.648;23.384;2023-02-28T05:17:41;94998.09;;;5.02;100.00
56052;BME280;41919;42.648;23.384;2023-02-28T05:20:08;95146.00;;;5.76;100.00
56052;BME280;41919;42.648;23.384;2023-02-28T05:22:36;95150.03;;;5.70;100.00
56052;BME280;41919;42.648;23.384;2023-02-28T05:25:03;95072.97;;;5.29;100.00
56052;BME280;41919;42.648;23.384;2023-02-28T05:27:30;95161.06;;;5.72;100.00
56052;BME280;41919;42.648;23.384;2023-02-28T05:29:56;95150.97;;;5.53;100.00
56052;BME280;41919;42.648;23.384;2023-02-28T05:32:21;95085.72;;;5.15;100.00
56052;BME280;41919;42.648;23.384;2023-02-28T05:34:46;95073.44;;;5.17;100.00
56052;BME280;41919;42.648;23.384;2023-02-28T05:37:14;95157.38;;;5.91;100.00
56052;BME280;41919;42.648;23.384;2023-02-28T05:39:41;95119.91;;;5.85;100.00
56052;BME280;41919;42.648;23.384;2023-02-28T05:42:07;95150.44;;;6.24;100.00
56052;BME280;41919;42.648;23.384;2023-02-28T05:44:32;95093.03;;;6.03;100.00
56052;BME280;41919;42.648;23.384;2023-02-28T05:46:58;95100.00;;;6.11;100.00
56052;BME280;41919;42.648;23.384;2023-02-28T05:49:23;95101.94;;;6.17;100.00
56052;BME280;41919;42.648;23.384;2023-02-28T05:51:48;95069.53;;;6.04;100.00
56052;BME280;41919;42.648;23.384;2023-02-28T05:54:14;95120.63;;;6.12;100.00
56052;BME280;41919;42.648;23.384;2023-02-28T05:56:40;95107.97;;;6.01;100.00
56052;BME280;41919;42.648;23.384;2023-02-28T05:59:09;95152.25;;;6.32;100.00
56052;BME280;41919;42.648;23.384;2023-02-28T06:01:40;95180.94;;;6.63;100.00
56052;BME280;41919;42.648;23.384;2023-02-28T06:04:08;95107.97;;;6.25;100.00
56052;BME280;41919;42.648;23.384;2023-02-28T06:06:34;95084.28;;;6.12;100.00
56052;BME280;41919;42.648;23.384;2023-02-28T06:09:00;95098.38;;;6.26;100.00
56052;BME280;41919;42.648;23.384;2023-02-28T06:11:26;95171.50;;;6.87;100.00
56052;BME280;41919;42.648;23.384;2023-02-28T06:13:56;95172.16;;;6.89;100.00
56052;BME280;41919;42.648;23.384;2023-02-28T06:16:23;95161.13;;;6.71;100.00
56052;BME280;41919;42.648;23.384;2023-02-28T06:18:48;95160.66;;;6.75;100.00
56052;BME280;41919;42.648;23.384;2023-02-28T06:21:14;95164.69;;;6.86;100.00
56052;BME280;41919;42.648;23.384;2023-02-28T06:23:39;95168.09;;;6.95;100.00
56052;BME280;41919;42.648;23.384;2023-02-28T06:26:05;95176.66;;;7.03;100.00
56052;BME280;41919;42.648;23.384;2023-02-28T06:28:31;95102.06;;;6.48;100.00
56052;BME280;41919;42.648;23.384;2023-02-28T06:30:57;95097.88;;;6.47;100.00
56052;BME280;41919;42.648;23.384;2023-02-28T06:33:22;95150.72;;;6.87;100.00
56052;BME280;41919;42.648;23.384;2023-02-28T06:35:51;95118.31;;;6.42;100.00
56052;BME280;41919;42.648;23.384;2023-02-28T06:38:16;95178.50;;;6.78;100.00
56052;BME280;41919;42.648;23.384;2023-02-28T06:40:43;95185.63;;;6.93;100.00
56052;BME280;41919;42.648;23.384;2023-02-28T06:43:09;95115.72;;;6.42;100.00
56052;BME280;41919;42.648;23.384;2023-02-28T06:45:41;95189.03;;;6.93;100.00
56052;BME280;41919;42.648;23.384;2023-02-28T06:48:07;95103.41;;;6.27;100.00
56052;BME280;41919;42.648;23.384;2023-02-28T06:50:33;95184.81;;;6.84;100.00
56052;BME280;41919;42.648;23.384;2023-02-28T06:52:58;95187.06;;;7.03;100.00
56052;BME280;41919;42.648;23.384;2023-02-28T06:55:24;95194.66;;;7.21;100.00
56052;BME280;41919;42.648;23.384;2023-02-28T06:57:49;95120.50;;;6.86;100.00
56052;BME280;41919;42.648;23.384;2023-02-28T07:00:16;95192.84;;;7.30;100.00
56052;BME280;41919;42.648;23.384;2023-02-28T07:02:41;95194.75;;;7.44;100.00
56052;BME280;41919;42.648;23.384;2023-02-28T07:05:07;95205.31;;;7.43;100.00
56052;BME280;41919;42.648;23.384;2023-02-28T07:07:33;95199.28;;;7.51;100.00
56052;BME280;41919;42.648;23.384;2023-02-28T07:09:59;95109.72;;;7.05;100.00
56052;BME280;41919;42.648;23.384;2023-02-28T07:12:24;95189.34;;;7.54;100.00
56052;BME280;41919;42.648;23.384;2023-02-28T07:14:50;95172.25;;;7.60;100.00
56052;BME280;41919;42.648;23.384;2023-02-28T07:17:15;95137.56;;;7.36;100.00
56052;BME280;41919;42.648;23.384;2023-02-28T07:19:41;95189.03;;;7.80;100.00
56052;BME280;41919;42.648;23.384;2023-02-28T07:22:06;95190.47;;;7.91;100.00
56052;BME280;41919;42.648;23.384;2023-02-28T07:24:32;95188.97;;;7.97;100.00
56052;BME280;41919;42.648;23.384;2023-02-28T07:26:58;95187.00;;;7.99;100.00
56052;BME280;41919;42.648;23.384;2023-02-28T07:29:24;95195.06;;;8.12;100.00
56052;BME280;41919;42.648;23.384;2023-02-28T07:31:50;95193.72;;;8.16;100.00
56052;BME280;41919;42.648;23.384;2023-02-28T07:34:18;95185.56;;;8.19;100.00
56052;BME280;41919;42.648;23.384;2023-02-28T07:36:43;95193.38;;;8.19;100.00
56052;BME280;41919;42.648;23.384;2023-02-28T07:39:09;95179.19;;;8.22;100.00
56052;BME280;41919;42.648;23.384;2023-02-28T07:41:35;95171.94;;;8.17;100.00
56052;BME280;41919;42.648;23.384;2023-02-28T07:44:04;95173.81;;;8.23;100.00
56052;BME280;41919;42.648;23.384;2023-02-28T07:46:30;95169.41;;;8.24;100.00
56052;BME280;41919;42.648;23.384;2023-02-28T07:49:00;95123.16;;;8.11;100.00
56052;BME280;41919;42.648;23.384;2023-02-28T07:51:31;95188.34;;;8.64;100.00
56052;BME280;41919;42.648;23.384;2023-02-28T07:53:56;95115.91;;;8.21;100.00
56052;BME280;41919;42.648;23.384;2023-02-28T07:56:22;95176.25;;;8.71;100.00
56052;BME280;41919;42.648;23.384;2023-02-28T07:58:48;95158.91;;;8.63;100.00
56052;BME280;41919;42.648;23.384;2023-02-28T08:01:14;95111.66;;;8.43;100.00
56052;BME280;41919;42.648;23.384;2023-02-28T08:03:40;95187.09;;;8.98;100.00
56052;BME280;41919;42.648;23.384;2023-02-28T08:06:07;95186.53;;;9.02;100.00
56052;BME280;41919;42.648;23.384;2023-02-28T08:08:33;95190.59;;;9.20;100.00
56052;BME280;41919;42.648;23.384;2023-02-28T08:11:00;95184.59;;;9.34;100.00
56052;BME280;41919;42.648;23.384;2023-02-28T08:13:27;95189.63;;;9.36;100.00
56052;BME280;41919;42.648;23.384;2023-02-28T08:15:54;95200.47;;;9.39;100.00
56052;BME280;41919;42.648;23.384;2023-02-28T08:18:20;95117.16;;;9.01;100.00
56052;BME280;41919;42.648;23.384;2023-02-28T08:20:45;95129.81;;;9.05;100.00
56052;BME280;41919;42.648;23.384;2023-02-28T08:23:11;95189.06;;;9.55;100.00
56052;BME280;41919;42.648;23.384;2023-02-28T08:25:36;95186.88;;;9.74;100.00
56052;BME280;41919;42.648;23.384;2023-02-28T08:28:02;95190.72;;;9.93;100.00
56052;BME280;41919;42.648;23.384;2023-02-28T08:30:27;95180.06;;;10.09;100.00
56052;BME280;41919;42.648;23.384;2023-02-28T08:32:53;95182.81;;;10.44;100.00
56052;BME280;41919;42.648;23.384;2023-02-28T08:35:19;95188.88;;;10.66;99.73
56052;BME280;41919;42.648;23.384;2023-02-28T08:37:47;95187.91;;;10.74;95.96
56052;BME280;41919;42.648;23.384;2023-02-28T08:40:13;95191.63;;;10.86;95.46
56052;BME280;41919;42.648;23.384;2023-02-28T08:42:47;95197.91;;;11.20;96.04
56052;BME280;41919;42.648;23.384;2023-02-28T08:45:14;95196.41;;;12.42;87.16
56052;BME280;41919;42.648;23.384;2023-02-28T08:47:40;95124.66;;;12.70;79.89
56052;BME280;41919;42.648;23.384;2023-02-28T08:50:07;95137.34;;;12.66;79.33
56052;BME280;41919;42.648;23.384;2023-02-28T08:52:33;95194.25;;;12.66;81.68
56052;BME280;41919;42.648;23.384;2023-02-28T08:54:58;95189.88;;;12.11;83.41
56052;BME280;41919;42.648;23.384;2023-02-28T08:57:24;95190.44;;;12.00;85.26
56052;BME280;41919;42.648;23.384;2023-02-28T08:59:52;95196.56;;;12.21;84.24
56052;BME280;41919;42.648;23.384;2023-02-28T09:02:17;95195.00;;;11.85;84.13
56052;BME280;41919;42.648;23.384;2023-02-28T09:04:43;95127.28;;;11.27;86.76
56052;BME280;41919;42.648;23.384;2023-02-28T09:07:11;95171.81;;;11.33;87.59
56052;BME280;41919;42.648;23.384;2023-02-28T09:09:36;95155.41;;;11.53;88.27
56052;BME280;41919;42.648;23.384;2023-02-28T09:12:02;95202.63;;;11.73;87.20
56052;BME280;41919;42.648;23.384;2023-02-28T09:14:28;95203.25;;;11.40;88.07
56052;BME280;41919;42.648;23.384;2023-02-28T09:16:53;95135.09;;;10.85;90.78
56052;BME280;41919;42.648;23.384;2023-02-28T09:19:20;95181.53;;;11.11;91.92
56052;BME280;41919;42.648;23.384;2023-02-28T09:21:45;95176.84;;;11.00;91.52
56052;BME280;41919;42.648;23.384;2023-02-28T09:24:11;95187.25;;;10.93;91.37
56052;BME280;41919;42.648;23.384;2023-02-28T09:26:39;95196.75;;;10.73;93.06
56052;BME280;41919;42.648;23.384;2023-02-28T09:29:05;95190.16;;;10.55;95.32
56052;BME280;41919;42.648;23.384;2023-02-28T09:31:31;95097.41;;;10.23;93.78
56052;BME280;41919;42.648;23.384;2023-02-28T09:33:57;95121.34;;;10.48;92.11
56052;BME280;41919;42.648;23.384;2023-02-28T09:36:25;95196.38;;;10.76;91.78
56052;BME280;41919;42.648;23.384;2023-02-28T09:38:51;95156.09;;;10.27;93.72
56052;BME280;41919;42.648;23.384;2023-02-28T09:43:47;95127.84;;;10.31;92.27
56052;BME280;41919;42.648;23.384;2023-02-28T09:46:31;95161.53;;;10.69;92.30
56052;BME280;41919;42.648;23.384;2023-02-28T09:49:01;95197.72;;;10.93;91.47
56052;BME280;41919;42.648;23.384;2023-02-28T09:54:20;95122.72;;;10.44;92.53
56052;BME280;41919;42.648;23.384;2023-02-28T09:56:56;95167.84;;;10.81;92.47
56052;BME280;41919;42.648;23.384;2023-02-28T10:05:02;95179.16;;;10.88;91.11
56052;BME280;41919;42.648;23.384;2023-02-28T10:08:11;95177.03;;;10.98;90.64
56052;BME280;41919;42.648;23.384;2023-02-28T10:10:49;95179.06;;;10.75;89.93
56052;BME280;41919;42.648;23.384;2023-02-28T10:14:15;95173.56;;;10.91;90.64
56052;BME280;41919;42.648;23.384;2023-02-28T10:16:27;95106.81;;;10.39;91.22
56052;BME280;41919;42.648;23.384;2023-02-28T10:19:20;95108.84;;;10.22;89.32
56052;BME280;41919;42.648;23.384;2023-02-28T10:21:59;95110.13;;;10.54;89.29
56052;BME280;41919;42.648;23.384;2023-02-28T10:24:47;95168.72;;;10.88;90.53
56052;BME280;41919;42.648;23.384;2023-02-28T10:27:16;95165.59;;;11.06;87.78
56052;BME280;41919;42.648;23.384;2023-02-28T10:29:51;95100.19;;;10.65;86.10
56052;BME280;41919;42.648;23.384;2023-02-28T10:32:22;95116.03;;;10.91;85.37
56052;BME280;41919;42.648;23.384;2023-02-28T10:34:57;95080.94;;;11.14;83.75
56052;BME280;41919;42.648;23.384;2023-02-28T10:37:24;95148.66;;;11.78;81.49
56052;BME280;41919;42.648;23.384;2023-02-28T10:39:49;95083.59;;;11.75;79.93
56052;BME280;41919;42.648;23.384;2023-02-28T10:42:27;95125.78;;;12.01;78.81
56052;BME280;41919;42.648;23.384;2023-02-28T10:45:25;95139.34;;;11.69;81.53
56052;BME280;41919;42.648;23.384;2023-02-28T10:48:02;95137.81;;;11.88;81.89
56052;BME280;41919;42.648;23.384;2023-02-28T10:52:53;95115.31;;;12.07;81.41
56052;BME280;41919;42.648;23.384;2023-02-28T10:55:21;95122.38;;;12.13;79.83
56052;BME280;41919;42.648;23.384;2023-02-28T10:57:47;95130.63;;;12.04;79.00
56052;BME280;41919;42.648;23.384;2023-02-28T11:02:42;95111.88;;;11.93;81.84
56052;BME280;41919;42.648;23.384;2023-02-28T11:05:33;95078.84;;;11.37;81.21
56052;BME280;41919;42.648;23.384;2023-02-28T11:10:32;95034.69;;;11.21;81.23
56052;BME280;41919;42.648;23.384;2023-02-28T11:13:00;95101.06;;;11.55;82.58
56052;BME280;41919;42.648;23.384;2023-02-28T11:15:30;95031.28;;;11.21;82.20
56052;BME280;41919;42.648;23.384;2023-02-28T11:20:36;95057.16;;;11.57;82.89
56052;BME280;41919;42.648;23.384;2023-02-28T11:23:04;95100.13;;;11.76;81.01
56052;BME280;41919;42.648;23.384;2023-02-28T11:25:32;95103.31;;;11.71;82.94
56052;BME280;41919;42.648;23.384;2023-02-28T11:28:00;95091.47;;;11.75;83.05
56052;BME280;41919;42.648;23.384;2023-02-28T11:30:38;95079.34;;;11.68;81.72
56052;BME280;41919;42.648;23.384;2023-02-28T11:33:26;95099.03;;;11.57;80.37
56052;BME280;41919;42.648;23.384;2023-02-28T11:35:52;95101.38;;;11.38;81.58
56052;BME280;41919;42.648;23.384;2023-02-28T11:38:19;95032.81;;;11.02;82.49
56052;BME280;41919;42.648;23.384;2023-02-28T11:43:30;95089.13;;;11.46;83.01
56052;BME280;41919;42.648;23.384;2023-02-28T11:48:39;95007.81;;;10.92;84.87
56052;BME280;41919;42.648;23.384;2023-02-28T11:51:21;95077.06;;;11.51;84.56
56052;BME280;41919;42.648;23.384;2023-02-28T11:54:35;95083.78;;;11.74;85.84
56052;BME280;41919;42.648;23.384;2023-02-28T11:56:57;95066.16;;;12.09;84.86
56052;BME280;41919;42.648;23.384;2023-02-28T11:59:35;95071.38;;;11.96;80.28
56052;BME280;41919;42.648;23.384;2023-02-28T12:02:15;95080.94;;;11.69;82.18
56052;BME280;41919;42.648;23.384;2023-02-28T12:04:59;95009.59;;;11.33;80.63
56052;BME280;41919;42.648;23.384;2023-02-28T12:07:55;95022.81;;;11.18;80.38
56052;BME280;41919;42.648;23.384;2023-02-28T12:10:37;94993.41;;;11.10;82.65
56052;BME280;41919;42.648;23.384;2023-02-28T12:15:53;95085.53;;;11.47;81.79
56052;BME280;41919;42.648;23.384;2023-02-28T12:21:11;95071.97;;;11.36;82.36
56052;BME280;41919;42.648;23.384;2023-02-28T12:24:21;95071.78;;;11.38;81.81
56052;BME280;41919;42.648;23.384;2023-02-28T12:26:54;95055.00;;;11.19;83.05
56052;BME280;41919;42.648;23.384;2023-02-28T12:29:26;95075.81;;;11.41;82.40
56052;BME280;41919;42.648;23.384;2023-02-28T12:32:04;95007.25;;;10.97;81.50
56052;BME280;41919;42.648;23.384;2023-02-28T12:34:38;95008.09;;;10.69;83.21
56052;BME280;41919;42.648;23.384;2023-02-28T12:37:06;95076.81;;;10.91;84.12
56052;BME280;41919;42.648;23.384;2023-02-28T12:39:46;95067.41;;;10.97;83.52
56052;BME280;41919;42.648;23.384;2023-02-28T12:42:22;95067.41;;;11.04;83.72
56052;BME280;41919;42.648;23.384;2023-02-28T12:44:54;95029.00;;;10.63;84.21
56052;BME280;41919;42.648;23.384;2023-02-28T12:47:21;95069.72;;;10.85;84.74
56052;BME280;41919;42.648;23.384;2023-02-28T12:50:08;95048.59;;;10.80;83.88
56052;BME280;41919;42.648;23.384;2023-02-28T12:55:26;95008.03;;;10.56;83.93
56052;BME280;41919;42.648;23.384;2023-02-28T13:09:26;95073.19;;;10.57;84.72
56052;BME280;41919;42.648;23.384;2023-02-28T13:11:54;95000.94;;;10.21;85.91
56052;BME280;41919;42.648;23.384;2023-02-28T13:19:42;95056.50;;;10.58;84.59
56052;BME280;41919;42.648;23.384;2023-02-28T13:24:48;95055.88;;;10.56;83.42
56052;BME280;41919;42.648;23.384;2023-02-28T13:29:42;95039.72;;;10.46;83.40
56052;BME280;41919;42.648;23.384;2023-02-28T13:34:37;95058.78;;;10.40;84.98
56052;BME280;41919;42.648;23.384;2023-02-28T13:39:49;95048.22;;;10.27;85.85
56052;BME280;41919;42.648;23.384;2023-02-28T14:01:51;95040.53;;;9.75;89.96
56052;BME280;41919;42.648;23.384;2023-02-28T14:07:25;94961.44;;;8.95;92.32
56052;BME280;41919;42.648;23.384;2023-02-28T14:09:57;94977.97;;;9.02;93.52
56052;BME280;41919;42.648;23.384;2023-02-28T14:17:59;95051.69;;;9.11;96.07
56052;BME280;41919;42.648;23.384;2023-02-28T14:20:30;95043.69;;;9.13;96.28
56052;BME280;41919;42.648;23.384;2023-02-28T14:36:39;94990.50;;;8.62;97.98
56052;BME280;41919;42.648;23.384;2023-02-28T14:39:07;95025.00;;;8.64;98.96
56052;BME280;41919;42.648;23.384;2023-02-28T14:41:38;94994.75;;;8.49;98.89
56052;BME280;41919;42.648;23.384;2023-02-28T14:44:25;95070.50;;;8.92;99.49
56052;BME280;41919;42.648;23.384;2023-02-28T14:46:56;94980.88;;;8.33;99.90
56052;BME280;41919;42.648;23.384;2023-02-28T14:49:42;95042.91;;;8.68;100.00
56052;BME280;41919;42.648;23.384;2023-02-28T14:52:17;95050.56;;;8.84;100.00
56052;BME280;41919;42.648;23.384;2023-02-28T14:54:44;94975.44;;;8.43;99.93
56052;BME280;41919;42.648;23.384;2023-02-28T14:57:30;95063.09;;;8.95;99.87
56052;BME280;41919;42.648;23.384;2023-02-28T15:00:04;95048.13;;;8.82;100.00
56052;BME280;41919;42.648;23.384;2023-02-28T15:02:36;95056.63;;;8.91;100.00
56052;BME280;41919;42.648;23.384;2023-02-28T15:05:19;95046.31;;;8.98;99.37
56052;BME280;41919;42.648;23.384;2023-02-28T15:07:48;94983.69;;;8.61;98.75
56052;BME280;41919;42.648;23.384;2023-02-28T15:10:20;95043.88;;;9.11;96.77
56052;BME280;41919;42.648;23.384;2023-02-28T15:12:52;95020.78;;;8.93;95.98
56052;BME280;41919;42.648;23.384;2023-02-28T15:15:20;95004.34;;;8.78;95.40
56052;BME280;41919;42.648;23.384;2023-02-28T15:17:49;95052.94;;;8.86;97.03